Time;durP1;ratioP1;P1;durP2;ratioP2;P2;SDS_P1;SDS_P2;PMS_P1;PMS_P2;Temp;Humidity;BMP_temperature;BMP_pressure;BME280_temperature;BME280_humidity;BME280_pressure;Samples;Min_cycle;Max_cycle;Signal;HPM_P1;HPM_P2
2022/10/17 00:00:40;;;;;;;28.15;16.30;;;;;;;9.21;100.00;100070.59;4138071;84;21879;-83
2022/10/17 00:06:43;;;;;;;24.75;16.10;;;;;;;9.13;100.00;100066.61;4144551;83;20963;-83
2022/10/17 00:12:46;;;;;;;23.27;13.55;;;;;;;9.12;100.00;100071.27;4131615;84;22041;-84
2022/10/17 00:18:47;;;;;;;17.32;12.10;;;;;;;9.03;100.00;100082.06;4139289;83;20964;-84
2022/10/17 00:24:48;;;;;;;27.82;14.23;;;;;;;9.05;100.00;100084.66;4140717;84;21011;-83
2022/10/17 00:31:03;;;;;;;27.82;13.18;;;;;;;9.04;100.00;100079.55;4138450;84;21949;-83
2022/10/17 00:37:04;;;;;;;21.93;13.15;;;;;;;9.06;100.00;100084.11;4139904;84;20958;-83
2022/10/17 00:43:14;;;;;;;31.68;15.48;;;;;;;9.12;100.00;100089.58;4132636;84;21503;-83
2022/10/17 00:49:16;;;;;;;24.82;14.58;;;;;;;9.04;100.00;100091.83;4136062;85;21017;-84
2022/10/17 00:55:30;;;;;;;25.85;15.28;;;;;;;8.93;100.00;100087.38;4131559;85;21528;-83
2022/10/17 01:01:31;;;;;;;24.65;15.18;;;;;;;8.84;100.00;100089.97;4127734;85;21006;-83
2022/10/17 01:07:33;;;;;;;26.52;14.80;;;;;;;8.76;100.00;100090.84;4111667;85;20956;-83
2022/10/17 01:13:49;;;;;;;28.02;17.23;;;;;;;8.70;100.00;100082.09;4128697;85;21477;-85
2022/10/17 01:20:29;;;;;;;23.47;14.98;;;;;;;8.68;100.00;100079.44;4130725;85;21472;-83
2022/10/17 01:26:53;;;;;;;23.95;14.93;;;;;;;8.55;100.00;100083.28;4133786;85;20966;-83
2022/10/17 01:33:12;;;;;;;28.55;16.62;;;;;;;8.63;100.00;100083.19;4127509;85;21668;-83
2022/10/17 01:39:32;;;;;;;21.37;12.63;;;;;;;8.65;100.00;100084.21;4103924;85;22068;-83
2022/10/17 01:45:57;;;;;;;27.67;14.13;;;;;;;8.67;100.00;100092.88;4122188;84;21012;-83
2022/10/17 01:52:16;;;;;;;27.50;17.05;;;;;;;8.71;100.00;100092.41;4134120;84;21496;-83
2022/10/17 01:58:41;;;;;;;26.50;17.17;;;;;;;8.50;100.00;100095.20;4134676;84;21075;-83
2022/10/17 02:04:43;;;;;;;27.75;15.55;;;;;;;8.42;100.00;100091.98;4123396;85;21480;-84
2022/10/17 02:10:53;;;;;;;25.40;16.90;;;;;;;8.36;100.00;100090.59;4122342;85;21017;-83
2022/10/17 02:17:40;;;;;;;24.00;13.95;;;;;;;8.28;100.00;100092.81;4122362;85;21587;-83
2022/10/17 02:24:01;;;;;;;26.37;15.75;;;;;;;8.23;100.00;100093.02;4124240;85;20990;-83
2022/10/17 02:30:11;;;;;;;29.72;17.17;;;;;;;8.22;100.00;100091.95;4120770;85;21044;-83
2022/10/17 02:36:21;;;;;;;22.77;14.75;;;;;;;8.22;100.00;100095.48;4128357;85;21091;-83
2022/10/17 02:42:23;;;;;;;26.57;14.40;;;;;;;8.16;100.00;100095.42;4119351;85;20992;-83
2022/10/17 02:48:35;;;;;;;27.10;16.55;;;;;;;8.15;100.00;100095.76;4069213;85;41491;-83
2022/10/17 02:54:44;;;;;;;23.25;15.10;;;;;;;8.07;100.00;100092.52;4001662;87;20973;-83
2022/10/17 03:00:46;;;;;;;25.05;12.53;;;;;;;8.03;100.00;100099.23;4013346;86;20986;-82
2022/10/17 03:06:48;;;;;;;20.23;13.13;;;;;;;8.00;100.00;100103.98;4024994;86;20977;-85
2022/10/17 03:12:50;;;;;;;19.12;11.48;;;;;;;7.99;100.00;100107.27;4024012;86;21007;-82
2022/10/17 03:18:51;;;;;;;22.02;13.50;;;;;;;7.97;100.00;100108.16;4021119;86;21076;-82
2022/10/17 03:24:54;;;;;;;18.02;12.70;;;;;;;7.99;100.00;100111.91;4022095;86;21013;-82
2022/10/17 03:30:55;;;;;;;23.47;15.25;;;;;;;7.97;100.00;100127.83;4036264;86;21029;-81
2022/10/17 03:36:56;;;;;;;21.87;15.18;;;;;;;7.90;100.00;100131.06;4025274;86;22043;-83
2022/10/17 03:42:59;;;;;;;23.40;14.60;;;;;;;7.80;100.00;100135.52;4029284;86;21000;-82
2022/10/17 03:49:00;;;;;;;23.50;13.58;;;;;;;7.75;100.00;100146.60;4023012;86;21528;-83
2022/10/17 03:55:02;;;;;;;26.40;15.75;;;;;;;7.73;100.00;100152.97;4026474;86;21057;-82
2022/10/17 04:01:07;;;;;;;27.42;15.13;;;;;;;7.72;100.00;100151.94;4033383;86;21008;-82
2022/10/17 04:07:08;;;;;;;20.17;13.13;;;;;;;7.73;100.00;100150.24;4021270;86;21006;-83
2022/10/17 04:13:11;;;;;;;18.65;11.55;;;;;;;7.63;100.00;100151.96;4022020;86;21671;-82
2022/10/17 04:19:13;;;;;;;19.77;12.90;;;;;;;7.52;100.00;100158.09;4016957;86;21000;-83
2022/10/17 04:25:16;;;;;;;23.67;13.90;;;;;;;7.44;100.00;100167.09;4020561;86;21080;-83
2022/10/17 04:31:20;;;;;;;22.65;15.00;;;;;;;7.41;100.00;100163.66;3949751;88;21021;-83
2022/10/17 04:37:32;;;;;;;19.82;12.45;;;;;;;7.55;100.00;100165.05;3978033;88;22051;-83
2022/10/17 04:43:39;;;;;;;23.67;14.50;;;;;;;7.43;100.00;100171.76;3964142;88;21044;-84
2022/10/17 04:49:41;;;;;;;17.65;11.43;;;;;;;7.35;100.00;100164.96;3982735;87;21669;-83
2022/10/17 04:55:44;;;;;;;20.35;12.70;;;;;;;7.28;100.00;100164.68;4063768;86;21039;-83
2022/10/17 05:01:47;;;;;;;18.62;12.20;;;;;;;7.23;100.00;100173.02;4068456;86;20992;-83
2022/10/17 05:07:48;;;;;;;16.32;11.68;;;;;;;7.27;100.00;100180.77;4034146;87;21003;-82
2022/10/17 05:13:54;;;;;;;22.37;14.58;;;;;;;7.36;100.00;100196.55;4066291;84;21030;-83
2022/10/17 05:19:56;;;;;;;26.02;15.53;;;;;;;7.34;100.00;100198.23;4062845;86;21111;-83
2022/10/17 05:32:25;;;;;;;23.70;13.13;;;;;;;7.28;100.00;100194.06;4532144;75;22852;-83
2022/10/17 05:38:27;;;;;;;19.45;14.47;;;;;;;7.21;100.00;100197.05;4453672;78;20959;-82
2022/10/17 05:44:29;;;;;;;21.02;12.05;;;;;;;7.19;100.00;100185.11;4449448;78;20977;-83
2022/10/17 05:50:32;;;;;;;21.48;12.63;;;;;;;7.23;100.00;100200.25;4453063;78;20986;-83
2022/10/17 05:56:36;;;;;;;23.73;13.20;;;;;;;7.41;100.00;100203.16;4448464;78;21057;-83
2022/10/17 06:02:37;;;;;;;22.15;13.53;;;;;;;7.53;100.00;100217.70;4462539;78;21014;-83
2022/10/17 06:08:43;;;;;;;20.50;13.38;;;;;;;7.68;100.00;100223.20;4469064;78;21018;-83
2022/10/17 06:14:46;;;;;;;28.05;18.50;;;;;;;7.90;100.00;100240.13;4453751;78;20990;-83
2022/10/17 06:20:49;;;;;;;30.57;18.45;;;;;;;8.08;100.00;100239.45;4449278;78;20985;-84
2022/10/17 06:26:52;;;;;;;25.43;17.25;;;;;;;8.27;100.00;100245.33;4449108;78;21052;-84
2022/10/17 06:32:55;;;;;;;29.50;20.35;;;;;;;8.55;100.00;100247.80;4352484;79;21044;-83
2022/10/17 06:38:56;;;;;;;37.93;23.73;;;;;;;8.84;100.00;100244.23;4391934;79;21031;-83
2022/10/17 06:45:07;;;;;;;40.05;24.18;;;;;;;9.17;100.00;100255.45;4350098;79;21047;-84
2022/10/17 06:51:17;;;;;;;36.85;23.32;;;;;;;9.60;100.00;100270.05;4403446;79;20991;-85
2022/10/17 06:57:23;;;;;;;;;;;;;;;9.99;100.00;100275.50;4392560;79;21633;-84
2022/10/17 07:03:27;;;;;;;34.33;22.25;;;;;;;10.37;100.00;100260.38;4391399;79;20422;-84
2022/10/17 07:09:30;;;;;;;30.82;19.82;;;;;;;10.82;100.00;100280.17;4394352;79;21054;-84
2022/10/17 07:15:32;;;;;;;33.05;19.85;;;;;;;11.30;100.00;100283.36;4377802;80;21039;-84
2022/10/17 07:21:34;;;;;;;27.65;17.95;;;;;;;11.70;100.00;100286.84;4395583;79;21022;-84
2022/10/17 07:27:35;;;;;;;28.15;17.07;;;;;;;12.18;100.00;100285.16;4383096;79;21038;-84
2022/10/17 07:33:37;;;;;;;25.60;16.12;;;;;;;12.77;100.00;100296.00;4410899;79;21003;-84
2022/10/17 07:39:38;;;;;;;22.50;15.45;;;;;;;13.36;100.00;100288.88;4367281;80;21026;-84
2022/10/17 07:45:40;;;;;;;25.12;15.83;;;;;;;13.83;100.00;100286.06;4367525;79;21035;-85
2022/10/17 07:51:47;;;;;;;20.45;13.50;;;;;;;14.21;100.00;100281.03;4395177;79;21030;-85
2022/10/17 07:57:49;;;;;;;17.90;12.18;;;;;;;14.48;100.00;100277.76;4398024;79;21386;-85
2022/10/17 08:03:51;;;;;;;19.30;13.48;;;;;;;14.85;100.00;100291.11;4377227;79;21046;-86
2022/10/17 08:09:55;;;;;;;19.50;12.20;;;;;;;15.38;100.00;100291.27;4408351;79;20979;-85
2022/10/17 08:16:08;;;;;;;23.20;14.43;;;;;;;15.99;100.00;100290.78;4413890;79;21050;-85
2022/10/17 08:22:09;;;;;;;22.25;15.08;;;;;;;16.77;100.00;100294.42;4416107;79;20963;-85
2022/10/17 08:28:10;;;;;;;19.62;13.85;;;;;;;17.43;99.56;100292.59;4395683;79;21848;-86
2022/10/17 08:34:26;;;;;;;22.13;13.15;;;;;;;18.18;97.79;100284.09;4375044;79;20991;-86
2022/10/17 08:40:37;;;;;;;22.98;13.32;;;;;;;19.00;96.30;100293.97;4383262;79;20994;-86
2022/10/17 08:46:44;;;;;;;20.20;13.65;;;;;;;19.61;95.05;100296.16;4346834;79;21002;-86
2022/10/17 08:53:01;;;;;;;23.18;12.03;;;;;;;20.26;93.25;100296.00;4410509;79;20987;-86
2022/10/17 08:59:22;;;;;;;15.65;10.43;;;;;;;20.71;92.76;100293.42;4388149;80;20983;-86
2022/10/17 09:06:10;;;;;;;12.07;9.20;;;;;;;21.12;90.96;100299.21;4380696;79;21010;-83
2022/10/17 09:12:42;;;;;;;11.00;8.63;;;;;;;21.56;89.78;100303.86;4373705;79;20987;-84
2022/10/17 09:18:49;;;;;;;13.53;8.38;;;;;;;22.26;88.09;100298.70;4413158;80;21006;-83
2022/10/17 09:24:57;;;;;;;14.70;8.43;;;;;;;22.95;85.90;100291.77;4343387;79;20995;-84
2022/10/17 09:37:44;;;;;;;10.23;7.28;;;;;;;23.97;84.17;100293.90;4412137;79;20983;-84
2022/10/17 09:43:53;;;;;;;10.25;7.10;;;;;;;24.68;82.12;100300.77;4417804;80;21806;-84
2022/10/17 09:49:57;;;;;;;12.88;7.05;;;;;;;25.04;80.65;100299.25;4412095;79;21175;-87
2022/10/17 09:56:21;;;;;;;8.78;6.53;;;;;;;25.31;78.59;100293.30;4419898;80;20986;-81
2022/10/17 10:02:42;;;;;;;10.82;6.00;;;;;;;25.70;76.68;100295.79;4421531;79;21038;-84
2022/10/17 10:09:30;;;;;;;9.75;6.12;;;;;;;26.41;74.96;100291.55;4365631;79;20967;-87
2022/10/17 10:16:17;;;;;;;9.20;5.65;;;;;;;26.75;70.78;100288.84;4389592;81;21583;-84
2022/10/17 10:22:42;;;;;;;7.30;5.55;;;;;;;27.26;69.57;100284.63;4411688;79;21562;-84
2022/10/17 10:28:56;;;;;;;7.75;5.67;;;;;;;27.30;65.90;100287.47;4417044;79;21572;-85
2022/10/17 10:35:24;;;;;;;5.55;5.03;;;;;;;27.05;65.19;100274.91;4422034;79;20967;-84
2022/10/17 10:41:55;;;;;;;9.55;5.22;;;;;;;26.96;63.53;100274.83;4387046;80;22008;-84
2022/10/17 10:48:05;;;;;;;9.33;5.40;;;;;;;26.77;61.88;100275.11;4385674;79;21039;-84
2022/10/17 10:54:42;;;;;;;6.60;5.37;;;;;;;26.49;61.87;100265.61;4399826;79;21015;-85
2022/10/17 11:00:45;;;;;;;10.08;6.20;;;;;;;26.49;60.53;100264.20;4153118;83;21128;-84
2022/10/17 11:06:49;;;;;;;6.40;5.25;;;;;;;26.51;60.13;100251.12;4196784;79;21121;-83
2022/10/17 11:13:20;;;;;;;6.22;5.62;;;;;;;25.95;57.12;100255.91;4399072;79;21042;-84
2022/10/17 11:19:36;;;;;;;7.30;5.80;;;;;;;25.76;57.02;100248.48;4396101;79;21097;-84
2022/10/17 11:25:40;;;;;;;7.12;5.72;;;;;;;25.71;56.73;100245.47;4390907;79;21002;-84
2022/10/17 11:32:02;;;;;;;11.28;6.08;;;;;;;25.25;54.20;100246.80;4397677;79;21030;-84
2022/10/17 11:38:44;;;;;;;9.13;6.50;;;;;;;24.84;53.10;100241.79;4391182;79;21544;-84
2022/10/17 11:45:03;;;;;;;8.60;6.10;;;;;;;24.67;54.60;100238.85;4371337;79;21006;-83
2022/10/17 11:51:15;;;;;;;8.33;5.67;;;;;;;24.42;53.38;100238.05;4358284;79;21074;-84
2022/10/17 11:57:46;;;;;;;7.78;5.75;;;;;;;24.39;53.32;100231.92;4382971;79;21011;-84
2022/10/17 12:04:12;;;;;;;7.42;5.55;;;;;;;24.37;54.03;100237.96;4355641;79;20979;-84
2022/10/17 12:10:48;;;;;;;13.93;7.17;;;;;;;24.36;53.68;100232.20;4407517;79;21462;-84
2022/10/17 12:16:50;;;;;;;8.38;6.75;;;;;;;24.28;52.10;100229.41;4374149;79;21000;-83
2022/10/17 12:23:14;;;;;;;7.50;5.75;;;;;;;24.13;53.40;100223.97;4394016;81;21007;-83
2022/10/17 12:29:23;;;;;;;6.42;5.65;;;;;;;24.04;53.85;100220.23;4399373;79;21042;-84
2022/10/17 12:35:28;;;;;;;12.55;6.65;;;;;;;23.94;54.05;100210.05;4394248;79;21605;-83
2022/10/17 12:41:43;;;;;;;8.88;5.30;;;;;;;23.81;53.82;100207.15;4387166;79;21042;-84
2022/10/17 12:47:44;;;;;;;12.00;6.42;;;;;;;23.84;53.66;100202.68;4390670;79;21471;-84
2022/10/17 12:54:03;;;;;;;11.18;6.22;;;;;;;23.80;53.60;100197.80;4409254;79;21018;-83
2022/10/17 13:00:47;;;;;;;6.60;5.90;;;;;;;23.72;54.25;100190.80;4410668;79;21034;-84
2022/10/17 13:13:57;;;;;;;7.05;5.80;;;;;;;23.66;53.99;100193.33;4403125;80;20947;-84
2022/10/17 13:19:58;;;;;;;10.28;5.85;;;;;;;23.66;52.74;100192.54;4399980;79;21110;-84
2022/10/17 13:26:23;;;;;;;7.42;5.62;;;;;;;23.65;53.37;100189.58;4352763;79;21045;-83
2022/10/17 13:32:36;;;;;;;8.33;5.28;;;;;;;23.58;53.85;100191.12;4397862;79;21129;-85
2022/10/17 13:38:37;;;;;;;6.80;5.10;;;;;;;23.49;53.72;100186.11;4383298;79;21059;-85
2022/10/17 13:44:39;;;;;;;8.13;4.95;;;;;;;23.38;54.03;100187.59;4385147;79;21547;-84
2022/10/17 13:50:42;;;;;;;7.30;4.72;;;;;;;23.37;53.76;100179.01;4375070;79;21010;-84
2022/10/17 13:56:44;;;;;;;5.47;4.80;;;;;;;23.28;54.04;100192.19;4398328;79;20966;-84
2022/10/17 14:02:47;;;;;;;9.45;5.37;;;;;;;23.17;54.44;100188.80;4418335;80;21928;-83
2022/10/17 14:09:02;;;;;;;7.65;5.75;;;;;;;23.00;54.81;100188.56;4390673;79;20987;-83
2022/10/17 14:21:48;;;;;;;9.58;5.60;;;;;;;22.77;55.13;100184.44;4387753;79;20971;-84
2022/10/17 14:28:02;;;;;;;12.90;5.80;;;;;;;22.65;55.37;100183.66;4393553;79;21464;-84
2022/10/17 14:34:04;;;;;;;8.85;5.12;;;;;;;22.58;55.69;100186.59;4387559;79;20955;-84
2022/10/17 14:40:07;;;;;;;13.08;7.12;;;;;;;22.49;55.75;100182.92;4415847;79;20998;-84
2022/10/17 14:46:14;;;;;;;9.38;5.00;;;;;;;22.28;56.16;100186.11;4392999;79;20971;-84
2022/10/17 14:52:23;;;;;;;9.08;5.37;;;;;;;22.08;56.54;100181.05;4362203;79;20999;-84
2022/10/17 14:58:28;;;;;;;28.17;7.53;;;;;;;21.90;57.12;100176.98;4406648;80;20983;-84
2022/10/17 15:04:30;;;;;;;19.20;12.68;;;;;;;21.70;57.56;100176.28;4366370;79;20975;-84
2022/10/17 15:10:35;;;;;;;16.00;11.63;;;;;;;21.57;58.09;100189.20;4415521;80;20967;-84
2022/10/17 15:16:38;;;;;;;13.05;8.65;;;;;;;21.41;58.48;100186.25;4418786;80;20947;-84
2022/10/17 15:22:39;;;;;;;14.10;7.35;;;;;;;21.19;58.98;100186.97;4350826;79;20944;-84
2022/10/17 15:28:41;;;;;;;19.82;7.45;;;;;;;20.92;59.93;100184.69;4401743;79;21463;-83
2022/10/17 15:34:43;;;;;;;48.55;25.02;;;;;;;20.61;60.94;100175.48;4351658;80;20999;-83
2022/10/17 15:41:01;;;;;;;23.57;9.80;;;;;;;20.29;61.92;100186.14;4360192;79;21014;-83
2022/10/17 15:47:06;;;;;;;21.37;10.23;;;;;;;19.90;62.86;100192.60;4412039;81;21038;-84
2022/10/17 15:53:36;;;;;;;17.55;8.60;;;;;;;19.51;63.88;100197.63;4365659;80;20998;-84
2022/10/17 15:59:39;;;;;;;17.98;8.25;;;;;;;19.14;64.85;100202.34;4394204;79;20944;-84
2022/10/17 16:05:41;;;;;;;24.23;9.05;;;;;;;18.73;65.61;100210.41;4393374;79;21033;-84
2022/10/17 16:11:53;;;;;;;27.62;10.35;;;;;;;18.39;66.62;100213.45;4396726;79;20999;-83
2022/10/17 16:17:57;;;;;;;14.73;8.98;;;;;;;18.12;67.33;100211.47;4380133;79;20986;-84
2022/10/17 16:23:59;;;;;;;16.80;8.85;;;;;;;17.82;67.94;100213.83;4401000;79;21039;-83
2022/10/17 16:30:00;;;;;;;16.62;9.65;;;;;;;17.47;68.97;100219.28;4409578;79;21948;-83
2022/10/17 16:36:02;;;;;;;15.15;8.60;;;;;;;17.32;69.85;100221.78;4275708;81;21956;-83
2022/10/17 16:42:03;;;;;;;19.80;9.90;;;;;;;17.07;70.33;100219.70;4243425;81;20979;-83
2022/10/17 16:48:05;;;;;;;21.07;9.33;;;;;;;16.84;71.24;100219.20;4340322;81;21043;-83
2022/10/17 16:54:08;;;;;;;18.57;8.85;;;;;;;16.63;71.97;100223.83;4244439;80;21036;-84
2022/10/17 17:00:11;;;;;;;22.65;12.68;;;;;;;16.39;72.79;100218.31;4256223;81;21035;-85
2022/10/17 17:06:21;;;;;;;22.32;10.63;;;;;;;16.27;73.83;100211.69;4228815;81;21041;-84
2022/10/17 17:12:22;;;;;;;16.62;8.95;;;;;;;16.06;73.80;100203.83;4228865;81;21095;-85
2022/10/17 17:18:35;;;;;;;17.98;10.65;;;;;;;15.95;75.51;100205.12;4253428;81;21046;-84
2022/10/17 17:24:37;;;;;;;29.23;11.12;;;;;;;15.74;75.49;100207.68;4220690;82;22024;-84
2022/10/17 17:30:38;;;;;;;27.65;13.80;;;;;;;15.49;76.77;100201.92;4229137;82;22221;-84
2022/10/17 17:36:41;;;;;;;26.82;15.30;;;;;;;15.24;76.78;100206.34;4223654;82;20998;-85
2022/10/17 17:42:43;;;;;;;28.17;15.85;;;;;;;14.98;77.37;100212.52;4213174;82;21011;-84
